Lamartine, PA (16375)

4:58 AM EDT on August 05, 2015 (GMT -0400)
Piney Dam | | Change Station
CLOSE
Current Station
Personal Weather Station
Location: Clarion, PA
Elevation: 1354 ft
Nearby Weather Stations

Elev 1354 ft 41.17 °N, 79.43 °W | Updated 44 seconds ago

Clear
Clear
52.7 °F
Feels Like 52.7 °F
N
0.0
Wind Variable Wind from South
Gusts 0.0 mph

Today
High -- | Low -- °F
--% Chance of Precip.
Yesterday
High -- | Low -- °F
Precip. -- in
6:17 AM 8:30 PM
Waning Gibbous, 69% visible
Pressure 30.00 in
Visibility 10.0 miles
Clouds Clear
Dew Point 52 °F
Humidity 99%
Rainfall 0.00 in
Snow Depth Not available.
UV 0 out of 12
Pollen 7.20 out of 12
Air Quality Not available.
Flu Activity Not available.
METAR KFKL 050855Z AUTO 24004KT 10SM CLR 14/11 A3000 RMK AO1 57003

More Conditions Fewer Conditions

Pressure 30.00 in
Visibility 10.0 miles
Clouds Clear
Dew Point 52 °F
Humidity 99%
Rainfall 0.00 in
Snow Depth Not available.
UV 0 out of 12
Pollen 7.20 out of 12
Air Quality Not available.
Flu Activity Not available.
METAR KFKL 050855Z AUTO 24004KT 10SM CLR 14/11 A3000 RMK AO1 57003

More Conditions Fewer Conditions

10-Day Weather Forecast

×

Almanac

Astronomy

Aug. 05, 2015 Rise Set
Actual Time
Civil Twilight
Nautical Twilight
Astronomical Twilight
Moon
Length of Visible Light
Length of Day
Tomorrow will be .
, % of the Moon is Illuminated

Today's Extremes

State Highs State Lows

Community

WunderPhotos

Upload Photos

1,844,105 photos uploaded!

WunderBlogs® & News

Nearby

Air Quality

  Air Quality AQ Index Pollutant
Not available.

Snow Depth

Station Depth Elevation

Earthquake Activity

City Distance Mag. Time & Date
Minimum magnitude displayed is 2.5.

Coastal Water Temperatures

Place Temperature

Stations

Nearby Weather Stations

Station Location Temp. Windchill Dew Point Humidity Wind Precip. Elev Updated Type